SWR74D LSZH-EBBR
Flight info
| Callsign | SWR74D |
|---|---|
| Flight time | 0h 57m |
| Altitude | 32000 |
| Route | VEBIT T10 TORPA DCT EDOPI DCT GIVOR DCT SORAL DCT IBERA DCT DIK Y37 BATTY |
| Aircraft | A320/M-SDE3FGHIRWY/LB1 |
Departure
| Time | 2026-04-26 13:49 |
|---|---|
| Airport | Zürich Airport (LSZH) |
Arrival
| Time | 2026-04-26 14:46 |
|---|---|
| Airport | Brussels Airport (EBBR) |
| Time | Latitude | Longitude | Altitude | Speed | Heading |
|---|---|---|---|---|---|
| 2026-04-26 12:58 | 47.45408 | 8.56061 | 1413 ft | 0 kts | 185° |
| 2026-04-26 13:00 | 47.45410 | 8.56062 | 1407 ft | 0 kts | 185° |
| 2026-04-26 13:25 | 47.45411 | 8.56062 | 1407 ft | 0 kts | 185° |
| 2026-04-26 13:38 | 47.45421 | 8.56063 | 1415 ft | 4 kts | 182° |
| 2026-04-26 13:38 | 47.45447 | 8.56062 | 1412 ft | 4 kts | 169° |
| 2026-04-26 13:38 | 47.45473 | 8.56050 | 1415 ft | 4 kts | 146° |
| 2026-04-26 13:38 | 47.45488 | 8.56024 | 1414 ft | 3 kts | 98° |
| 2026-04-26 13:39 | 47.45489 | 8.56020 | 1411 ft | 1 kts | 95° |
| 2026-04-26 13:43 | 47.45486 | 8.56063 | 1410 ft | 9 kts | 95° |
| 2026-04-26 13:43 | 47.45478 | 8.56184 | 1407 ft | 13 kts | 96° |
| 2026-04-26 13:44 | 47.45519 | 8.56292 | 1415 ft | 11 kts | 53° |
| 2026-04-26 13:44 | 47.45568 | 8.56380 | 1413 ft | 15 kts | 49° |
| 2026-04-26 13:44 | 47.45591 | 8.56527 | 1418 ft | 15 kts | 97° |
| 2026-04-26 13:44 | 47.45581 | 8.56676 | 1418 ft | 14 kts | 95° |
| 2026-04-26 13:45 | 47.45571 | 8.56818 | 1420 ft | 14 kts | 96° |
| 2026-04-26 13:45 | 47.45562 | 8.56943 | 1420 ft | 3 kts | 95° |
| 2026-04-26 13:46 | 47.45567 | 8.56983 | 1421 ft | 8 kts | 64° |
| 2026-04-26 13:46 | 47.45619 | 8.57022 | 1425 ft | 10 kts | 7° |
| 2026-04-26 13:46 | 47.45666 | 8.56967 | 1424 ft | 10 kts | 277° |
| 2026-04-26 13:46 | 47.45667 | 8.56957 | 1424 ft | 0 kts | 277° |
| 2026-04-26 13:48 | 47.45667 | 8.56953 | 1424 ft | 6 kts | 277° |
| 2026-04-26 13:48 | 47.45705 | 8.56436 | 1422 ft | 91 kts | 276° |
| 2026-04-26 13:48 | 47.45795 | 8.55163 | 1398 ft | 155 kts | 276° |
| 2026-04-26 13:48 | 47.45910 | 8.53548 | 1932 ft | 155 kts | 276° |
| 2026-04-26 13:49 | 47.46023 | 8.51960 | 2579 ft | 156 kts | 278° |
| 2026-04-26 13:49 | 47.46141 | 8.50348 | 3178 ft | 158 kts | 281° |
| 2026-04-26 13:49 | 47.46245 | 8.48733 | 3666 ft | 159 kts | 273° |
| 2026-04-26 13:49 | 47.45907 | 8.47211 | 4123 ft | 163 kts | 229° |
| 2026-04-26 13:50 | 47.44964 | 8.46318 | 4562 ft | 155 kts | 200° |
| 2026-04-26 13:50 | 47.44020 | 8.45355 | 4749 ft | 178 kts | 229° |
| 2026-04-26 13:50 | 47.43222 | 8.43787 | 4936 ft | 206 kts | 236° |
| 2026-04-26 13:50 | 47.42377 | 8.41934 | 4989 ft | 232 kts | 236° |
| 2026-04-26 13:51 | 47.41442 | 8.39883 | 5019 ft | 255 kts | 236° |
| 2026-04-26 13:51 | 47.40373 | 8.37601 | 5492 ft | 275 kts | 235° |
| 2026-04-26 13:51 | 47.39250 | 8.35272 | 6311 ft | 280 kts | 234° |
| 2026-04-26 13:51 | 47.38278 | 8.32783 | 7217 ft | 281 kts | 245° |
| 2026-04-26 13:52 | 47.37437 | 8.30177 | 8052 ft | 283 kts | 243° |
| 2026-04-26 13:52 | 47.36531 | 8.27581 | 8894 ft | 286 kts | 242° |
| 2026-04-26 13:52 | 47.35592 | 8.24974 | 9765 ft | 288 kts | 242° |
| 2026-04-26 13:52 | 47.34643 | 8.22358 | 10540 ft | 293 kts | 242° |
| 2026-04-26 13:53 | 47.33646 | 8.19603 | 10772 ft | 316 kts | 242° |
| 2026-04-26 13:53 | 47.32581 | 8.16643 | 11047 ft | 336 kts | 242° |
| 2026-04-26 13:53 | 47.31491 | 8.13604 | 11634 ft | 343 kts | 243° |
| 2026-04-26 13:53 | 47.30374 | 8.10478 | 12372 ft | 346 kts | 243° |
| 2026-04-26 13:54 | 47.29256 | 8.07338 | 13133 ft | 348 kts | 243° |
| 2026-04-26 13:54 | 47.28165 | 8.04125 | 13852 ft | 351 kts | 249° |
| 2026-04-26 13:54 | 47.27466 | 8.00674 | 14474 ft | 354 kts | 260° |
| 2026-04-26 13:55 | 47.27558 | 7.93439 | 15734 ft | 357 kts | 278° |
| 2026-04-26 13:55 | 47.27799 | 7.90983 | 16203 ft | 358 kts | 278° |
| 2026-04-26 13:55 | 47.28608 | 7.82481 | 17625 ft | 365 kts | 278° |
| 2026-04-26 13:56 | 47.28959 | 7.78758 | 18223 ft | 368 kts | 278° |
| 2026-04-26 13:56 | 47.29312 | 7.75010 | 18781 ft | 371 kts | 278° |
| 2026-04-26 13:56 | 47.29668 | 7.71224 | 19314 ft | 374 kts | 278° |
| 2026-04-26 13:56 | 47.30025 | 7.67415 | 19863 ft | 376 kts | 278° |
| 2026-04-26 13:57 | 47.30407 | 7.63591 | 20404 ft | 379 kts | 281° |
| 2026-04-26 13:57 | 47.31118 | 7.59835 | 20930 ft | 382 kts | 287° |
| 2026-04-26 13:57 | 47.31937 | 7.56099 | 21468 ft | 384 kts | 287° |
| 2026-04-26 13:57 | 47.32773 | 7.52281 | 22003 ft | 387 kts | 287° |
| 2026-04-26 13:58 | 47.33587 | 7.48552 | 22480 ft | 389 kts | 287° |
| 2026-04-26 13:58 | 47.34414 | 7.44735 | 22967 ft | 392 kts | 287° |
| 2026-04-26 13:58 | 47.35243 | 7.40889 | 23467 ft | 395 kts | 287° |
| 2026-04-26 13:58 | 47.36076 | 7.37016 | 23924 ft | 397 kts | 288° |
| 2026-04-26 13:59 | 47.36913 | 7.33136 | 24322 ft | 399 kts | 288° |
| 2026-04-26 13:59 | 47.37760 | 7.29222 | 24715 ft | 401 kts | 288° |
| 2026-04-26 13:59 | 47.38608 | 7.25296 | 25095 ft | 403 kts | 288° |
| 2026-04-26 14:00 | 47.41036 | 7.13344 | 26210 ft | 408 kts | 282° |
| 2026-04-26 14:00 | 47.41637 | 7.09237 | 26568 ft | 410 kts | 283° |
| 2026-04-26 14:00 | 47.42036 | 7.06515 | 26788 ft | 412 kts | 283° |
| 2026-04-26 14:01 | 47.42853 | 7.00958 | 27204 ft | 415 kts | 283° |
| 2026-04-26 14:01 | 47.43467 | 6.96787 | 27532 ft | 417 kts | 283° |
| 2026-04-26 14:01 | 47.44081 | 6.92594 | 27863 ft | 419 kts | 283° |
| 2026-04-26 14:01 | 47.44700 | 6.88377 | 28186 ft | 421 kts | 283° |
| 2026-04-26 14:02 | 47.45313 | 6.84143 | 28496 ft | 422 kts | 283° |
| 2026-04-26 14:02 | 47.45926 | 6.79885 | 28818 ft | 424 kts | 283° |
| 2026-04-26 14:02 | 47.46731 | 6.75700 | 29105 ft | 424 kts | 294° |
| 2026-04-26 14:02 | 47.48145 | 6.71893 | 29373 ft | 424 kts | 306° |
| 2026-04-26 14:03 | 47.50133 | 6.68648 | 29642 ft | 426 kts | 319° |
| 2026-04-26 14:03 | 47.52566 | 6.66147 | 29896 ft | 428 kts | 332° |
| 2026-04-26 14:03 | 47.55335 | 6.64516 | 30145 ft | 431 kts | 344° |
| 2026-04-26 14:03 | 47.58303 | 6.63756 | 30371 ft | 434 kts | 351° |
| 2026-04-26 14:04 | 47.61303 | 6.63160 | 30587 ft | 436 kts | 351° |
| 2026-04-26 14:04 | 47.64311 | 6.62570 | 30843 ft | 435 kts | 350° |
| 2026-04-26 14:04 | 47.67271 | 6.61988 | 31135 ft | 434 kts | 350° |
| 2026-04-26 14:04 | 47.70307 | 6.61384 | 31430 ft | 434 kts | 350° |
| 2026-04-26 14:05 | 47.73251 | 6.60789 | 31694 ft | 433 kts | 350° |
| 2026-04-26 14:05 | 47.76238 | 6.60179 | 31954 ft | 433 kts | 350° |
| 2026-04-26 14:05 | 47.79222 | 6.59571 | 32149 ft | 433 kts | 350° |
| 2026-04-26 14:06 | 47.85130 | 6.58378 | 32192 ft | 425 kts | 350° |
| 2026-04-26 14:06 | 47.90973 | 6.57200 | 32190 ft | 423 kts | 350° |
| 2026-04-26 14:07 | 47.96801 | 6.55953 | 32194 ft | 422 kts | 349° |
| 2026-04-26 14:07 | 48.02602 | 6.54540 | 32191 ft | 422 kts | 348° |
| 2026-04-26 14:08 | 48.08396 | 6.53096 | 32207 ft | 422 kts | 348° |
| 2026-04-26 14:08 | 48.14186 | 6.51684 | 32210 ft | 422 kts | 348° |
| 2026-04-26 14:09 | 48.19977 | 6.50293 | 32211 ft | 421 kts | 348° |
| 2026-04-26 14:09 | 48.25765 | 6.48902 | 32227 ft | 421 kts | 348° |
| 2026-04-26 14:10 | 48.31555 | 6.47501 | 32223 ft | 421 kts | 348° |
| 2026-04-26 14:10 | 48.37334 | 6.46103 | 32208 ft | 421 kts | 348° |
| 2026-04-26 14:11 | 48.45996 | 6.43994 | 32219 ft | 420 kts | 348° |
| 2026-04-26 14:11 | 48.51752 | 6.42588 | 32232 ft | 419 kts | 348° |
| 2026-04-26 14:12 | 48.57512 | 6.41187 | 32228 ft | 419 kts | 348° |
| 2026-04-26 14:12 | 48.63253 | 6.39780 | 32225 ft | 418 kts | 348° |
| 2026-04-26 14:13 | 48.68096 | 6.39364 | 32222 ft | 422 kts | 1° |
| 2026-04-26 14:13 | 48.71029 | 6.39673 | 32221 ft | 422 kts | 1° |
| 2026-04-26 14:14 | 48.76887 | 6.40269 | 32217 ft | 422 kts | 1° |
| 2026-04-26 14:14 | 48.82747 | 6.40853 | 32216 ft | 422 kts | 1° |
| 2026-04-26 14:15 | 48.88611 | 6.41444 | 32237 ft | 422 kts | 1° |
| 2026-04-26 14:15 | 48.94479 | 6.42038 | 32250 ft | 422 kts | 1° |
| 2026-04-26 14:16 | 49.00322 | 6.42633 | 32249 ft | 422 kts | 1° |
| 2026-04-26 14:16 | 49.06191 | 6.43241 | 32245 ft | 422 kts | 1° |
| 2026-04-26 14:17 | 49.12020 | 6.43279 | 32242 ft | 417 kts | 349° |
| 2026-04-26 14:17 | 49.17637 | 6.41209 | 32253 ft | 415 kts | 343° |
| 2026-04-26 14:18 | 49.23208 | 6.38921 | 32239 ft | 415 kts | 343° |
| 2026-04-26 14:18 | 49.28788 | 6.36630 | 32237 ft | 415 kts | 343° |
| 2026-04-26 14:19 | 49.34370 | 6.34329 | 32234 ft | 415 kts | 343° |
| 2026-04-26 14:19 | 49.39910 | 6.32043 | 32241 ft | 415 kts | 343° |
| 2026-04-26 14:20 | 49.45479 | 6.29703 | 32238 ft | 414 kts | 339° |
| 2026-04-26 14:20 | 49.48104 | 6.27804 | 32239 ft | 412 kts | 326° |
| 2026-04-26 14:20 | 49.50159 | 6.24898 | 32227 ft | 410 kts | 306° |
| 2026-04-26 14:21 | 49.53231 | 6.17509 | 32225 ft | 409 kts | 308° |
| 2026-04-26 14:21 | 49.56923 | 6.10832 | 32236 ft | 409 kts | 313° |
| 2026-04-26 14:22 | 49.60805 | 6.04395 | 32238 ft | 410 kts | 313° |
| 2026-04-26 14:22 | 49.64619 | 5.97850 | 32236 ft | 410 kts | 311° |
| 2026-04-26 14:23 | 49.68360 | 5.91186 | 32052 ft | 412 kts | 311° |
| 2026-04-26 14:23 | 49.70226 | 5.87821 | 31811 ft | 412 kts | 311° |
| 2026-04-26 14:23 | 49.72092 | 5.84461 | 31537 ft | 412 kts | 311° |
| 2026-04-26 14:23 | 49.73961 | 5.81104 | 31278 ft | 412 kts | 311° |
| 2026-04-26 14:24 | 49.75829 | 5.77755 | 31023 ft | 410 kts | 311° |
| 2026-04-26 14:24 | 49.77681 | 5.74436 | 30487 ft | 406 kts | 311° |
| 2026-04-26 14:24 | 49.79517 | 5.71144 | 29834 ft | 403 kts | 311° |
| 2026-04-26 14:24 | 49.81335 | 5.67879 | 29267 ft | 398 kts | 311° |
| 2026-04-26 14:25 | 49.83130 | 5.64651 | 28696 ft | 393 kts | 311° |
| 2026-04-26 14:25 | 49.84908 | 5.61452 | 28144 ft | 390 kts | 311° |
| 2026-04-26 14:25 | 49.86667 | 5.58282 | 27589 ft | 386 kts | 311° |
| 2026-04-26 14:25 | 49.88412 | 5.55136 | 27041 ft | 383 kts | 311° |
| 2026-04-26 14:26 | 49.90140 | 5.52015 | 26500 ft | 380 kts | 311° |
| 2026-04-26 14:26 | 49.91855 | 5.48908 | 25969 ft | 377 kts | 311° |
| 2026-04-26 14:26 | 49.93557 | 5.45817 | 25453 ft | 375 kts | 311° |
| 2026-04-26 14:26 | 49.95244 | 5.42752 | 24953 ft | 373 kts | 310° |
| 2026-04-26 14:27 | 49.96925 | 5.39694 | 24459 ft | 371 kts | 310° |
| 2026-04-26 14:27 | 49.98594 | 5.36661 | 23977 ft | 369 kts | 310° |
| 2026-04-26 14:27 | 50.00263 | 5.33626 | 23450 ft | 367 kts | 310° |
| 2026-04-26 14:27 | 50.01907 | 5.30630 | 22998 ft | 363 kts | 310° |
| 2026-04-26 14:28 | 50.03540 | 5.27650 | 22559 ft | 360 kts | 310° |
| 2026-04-26 14:28 | 50.05155 | 5.24700 | 22117 ft | 356 kts | 310° |
| 2026-04-26 14:28 | 50.06753 | 5.21782 | 21675 ft | 353 kts | 310° |
| 2026-04-26 14:28 | 50.08338 | 5.18877 | 21241 ft | 350 kts | 310° |
| 2026-04-26 14:29 | 50.09888 | 5.16027 | 20793 ft | 348 kts | 310° |
| 2026-04-26 14:29 | 50.11446 | 5.13160 | 20341 ft | 346 kts | 310° |
| 2026-04-26 14:29 | 50.13002 | 5.10307 | 19903 ft | 344 kts | 310° |
| 2026-04-26 14:29 | 50.14559 | 5.07469 | 19442 ft | 343 kts | 310° |
| 2026-04-26 14:30 | 50.16106 | 5.04652 | 18979 ft | 342 kts | 310° |
| 2026-04-26 14:30 | 50.17655 | 5.01825 | 18504 ft | 342 kts | 310° |
| 2026-04-26 14:30 | 50.19196 | 4.99009 | 18008 ft | 340 kts | 310° |
| 2026-04-26 14:30 | 50.20728 | 4.96205 | 17558 ft | 338 kts | 310° |
| 2026-04-26 14:31 | 50.22249 | 4.93418 | 17093 ft | 336 kts | 310° |
| 2026-04-26 14:31 | 50.23761 | 4.90648 | 16652 ft | 335 kts | 310° |
| 2026-04-26 14:31 | 50.25268 | 4.87883 | 16208 ft | 334 kts | 310° |
| 2026-04-26 14:31 | 50.26770 | 4.85115 | 15755 ft | 333 kts | 310° |
| 2026-04-26 14:32 | 50.28269 | 4.82348 | 15312 ft | 333 kts | 310° |
| 2026-04-26 14:32 | 50.29762 | 4.79587 | 14870 ft | 332 kts | 310° |
| 2026-04-26 14:32 | 50.31251 | 4.76831 | 14431 ft | 332 kts | 311° |
| 2026-04-26 14:32 | 50.32740 | 4.74077 | 13973 ft | 331 kts | 310° |
| 2026-04-26 14:33 | 50.34224 | 4.71326 | 13488 ft | 330 kts | 310° |
| 2026-04-26 14:33 | 50.35701 | 4.68589 | 13051 ft | 328 kts | 310° |
| 2026-04-26 14:33 | 50.37165 | 4.65869 | 12597 ft | 326 kts | 310° |
| 2026-04-26 14:33 | 50.38643 | 4.63121 | 12135 ft | 325 kts | 310° |
| 2026-04-26 14:34 | 50.40075 | 4.60461 | 11818 ft | 319 kts | 310° |
| 2026-04-26 14:34 | 50.41476 | 4.57858 | 11653 ft | 309 kts | 310° |
| 2026-04-26 14:34 | 50.42833 | 4.55330 | 11373 ft | 293 kts | 309° |
| 2026-04-26 14:34 | 50.44106 | 4.52956 | 11240 ft | 278 kts | 309° |
| 2026-04-26 14:35 | 50.45345 | 4.50646 | 11109 ft | 276 kts | 309° |
| 2026-04-26 14:35 | 50.46606 | 4.48367 | 10996 ft | 276 kts | 315° |
| 2026-04-26 14:35 | 50.48119 | 4.46395 | 10436 ft | 285 kts | 322° |
| 2026-04-26 14:35 | 50.49721 | 4.44500 | 9834 ft | 289 kts | 322° |
| 2026-04-26 14:36 | 50.51292 | 4.42656 | 9288 ft | 282 kts | 322° |
| 2026-04-26 14:36 | 50.52867 | 4.40808 | 8756 ft | 275 kts | 323° |
| 2026-04-26 14:36 | 50.54358 | 4.39047 | 8256 ft | 270 kts | 322° |
| 2026-04-26 14:36 | 50.55846 | 4.37279 | 7756 ft | 267 kts | 323° |
| 2026-04-26 14:37 | 50.57337 | 4.35501 | 7247 ft | 271 kts | 323° |
| 2026-04-26 14:37 | 50.58864 | 4.33681 | 6730 ft | 270 kts | 323° |
| 2026-04-26 14:37 | 50.60324 | 4.31940 | 6199 ft | 263 kts | 323° |
| 2026-04-26 14:37 | 50.61766 | 4.30221 | 5715 ft | 258 kts | 323° |
| 2026-04-26 14:38 | 50.63186 | 4.28528 | 5229 ft | 255 kts | 323° |
| 2026-04-26 14:38 | 50.64596 | 4.26844 | 4743 ft | 254 kts | 323° |
| 2026-04-26 14:38 | 50.66003 | 4.25163 | 4262 ft | 251 kts | 323° |
| 2026-04-26 14:38 | 50.66923 | 4.24061 | 3948 ft | 250 kts | 323° |
| 2026-04-26 14:39 | 50.68759 | 4.21852 | 3789 ft | 248 kts | 323° |
| 2026-04-26 14:39 | 50.70136 | 4.20198 | 3706 ft | 249 kts | 323° |
| 2026-04-26 14:39 | 50.71516 | 4.18544 | 3613 ft | 248 kts | 324° |
| 2026-04-26 14:39 | 50.72946 | 4.17072 | 3505 ft | 246 kts | 338° |
| 2026-04-26 14:40 | 50.74565 | 4.16151 | 3389 ft | 247 kts | 341° |
| 2026-04-26 14:40 | 50.76184 | 4.15254 | 3274 ft | 246 kts | 341° |
| 2026-04-26 14:40 | 50.77792 | 4.14356 | 3167 ft | 240 kts | 341° |
| 2026-04-26 14:40 | 50.79338 | 4.13559 | 3054 ft | 228 kts | 351° |
| 2026-04-26 14:41 | 50.80813 | 4.13940 | 2996 ft | 211 kts | 34° |
| 2026-04-26 14:41 | 50.81751 | 4.15702 | 3003 ft | 214 kts | 62° |
| 2026-04-26 14:41 | 50.82351 | 4.17876 | 3005 ft | 216 kts | 68° |
| 2026-04-26 14:41 | 50.82854 | 4.20035 | 3001 ft | 202 kts | 69° |
| 2026-04-26 14:42 | 50.83329 | 4.22052 | 2999 ft | 189 kts | 68° |
| 2026-04-26 14:42 | 50.83802 | 4.23950 | 3017 ft | 183 kts | 66° |
| 2026-04-26 14:42 | 50.84283 | 4.25805 | 2902 ft | 184 kts | 66° |
| 2026-04-26 14:42 | 50.84786 | 4.27657 | 2615 ft | 182 kts | 65° |
| 2026-04-26 14:43 | 50.85302 | 4.29512 | 2368 ft | 178 kts | 65° |
| 2026-04-26 14:43 | 50.85789 | 4.31243 | 2121 ft | 173 kts | 65° |
| 2026-04-26 14:43 | 50.86262 | 4.32909 | 1920 ft | 161 kts | 65° |
| 2026-04-26 14:43 | 50.86704 | 4.34461 | 1708 ft | 148 kts | 64° |
| 2026-04-26 14:44 | 50.87114 | 4.35900 | 1505 ft | 140 kts | 64° |
| 2026-04-26 14:44 | 50.87496 | 4.37293 | 1343 ft | 137 kts | 64° |
| 2026-04-26 14:44 | 50.87881 | 4.38661 | 1158 ft | 136 kts | 63° |
| 2026-04-26 14:44 | 50.88265 | 4.40020 | 974 ft | 135 kts | 65° |
| 2026-04-26 14:45 | 50.88658 | 4.41380 | 798 ft | 137 kts | 63° |
| 2026-04-26 14:45 | 50.88928 | 4.42279 | 689 ft | 136 kts | 63° |
| 2026-04-26 14:45 | 50.89456 | 4.44087 | 460 ft | 136 kts | 64° |
| 2026-04-26 14:45 | 50.89857 | 4.45461 | 237 ft | 137 kts | 65° |
| 2026-04-26 14:46 | 50.90241 | 4.46784 | 125 ft | 120 kts | 65° |
| 2026-04-26 14:46 | 50.90517 | 4.47728 | 120 ft | 73 kts | 65° |
| 2026-04-26 14:46 | 50.90679 | 4.48296 | 119 ft | 15 kts | 65° |
| 2026-04-26 14:46 | 50.90637 | 4.48350 | 121 ft | 8 kts | 146° |
| 2026-04-26 14:47 | 50.90608 | 4.48422 | 121 ft | 9 kts | 120° |
| 2026-04-26 14:47 | 50.90580 | 4.48510 | 118 ft | 10 kts | 119° |
| 2026-04-26 14:47 | 50.90599 | 4.48648 | 117 ft | 15 kts | 66° |
| 2026-04-26 14:47 | 50.90646 | 4.48806 | 120 ft | 17 kts | 65° |
| 2026-04-26 14:48 | 50.90698 | 4.48984 | 116 ft | 19 kts | 65° |
| 2026-04-26 14:48 | 50.90668 | 4.49118 | 118 ft | 15 kts | 153° |
| 2026-04-26 14:48 | 50.90580 | 4.49182 | 121 ft | 12 kts | 157° |
| 2026-04-26 14:48 | 50.90509 | 4.49233 | 120 ft | 10 kts | 155° |
| 2026-04-26 14:49 | 50.90441 | 4.49283 | 121 ft | 12 kts | 154° |
| 2026-04-26 14:49 | 50.90370 | 4.49336 | 124 ft | 10 kts | 153° |
| 2026-04-26 14:49 | 50.90308 | 4.49404 | 123 ft | 11 kts | 160° |
| 2026-04-26 14:49 | 50.90240 | 4.49386 | 127 ft | 11 kts | 199° |
| 2026-04-26 14:50 | 50.90138 | 4.49346 | 128 ft | 18 kts | 194° |
| 2026-04-26 14:50 | 50.90031 | 4.49303 | 131 ft | 14 kts | 194° |
| 2026-04-26 14:50 | 50.89938 | 4.49265 | 135 ft | 12 kts | 194° |
| 2026-04-26 14:50 | 50.89893 | 4.49208 | 138 ft | 6 kts | 243° |
| 2026-04-26 14:51 | 50.89876 | 4.49151 | 139 ft | 7 kts | 245° |
| 2026-04-26 14:51 | 50.89844 | 4.49040 | 140 ft | 15 kts | 246° |
| 2026-04-26 14:51 | 50.89805 | 4.48902 | 140 ft | 13 kts | 246° |
| 2026-04-26 14:51 | 50.89769 | 4.48779 | 140 ft | 11 kts | 245° |
| 2026-04-26 14:52 | 50.89740 | 4.48702 | 140 ft | 6 kts | 207° |
| 2026-04-26 14:52 | 50.89708 | 4.48716 | 142 ft | 5 kts | 157° |
| 2026-04-26 14:52 | 50.89678 | 4.48738 | 143 ft | 4 kts | 155° |
| 2026-04-26 14:52 | 50.89667 | 4.48746 | 144 ft | 0 kts | 155° |